Flight Track Log - Related Links

Times and Time Zones

All times are in EDT time to prevent confusion due to time zone crossing. See the EJA829P flight status page for this flight to view local times or setup timezone preferences in your user account.

Time Position Orientation Groundspeed Altitude Reporting Facility
EDT Latitude Longitude Course Direction KTS MPH feet Rate Location/Type
Sun 11:16:52 AM 29.1703 -81.0828 241° Southwest 175 201 1,100  Level Jacksonville Center
Sun 11:17:53 AM 29.1439 -81.1381 241° Southwest 198 228 4,900 2,767 Climbing Jacksonville Center
Sun 11:20:05 AM 29.0667 -81.0833 148° Southeast 366 421 10,000 1,594 Climbing Orlando TRACON
Sun 11:21:05 AM 29.0667 -80.9667 90° East 367 422 10,000 50 Level Orlando TRACON
Sun 11:22:05 AM 29.0500 -80.8500 99° East 369 425 10,100 496 Climbing Orlando TRACON
Sun 11:23:06 AM 28.9833 -80.7667 132° Southeast 375 432 11,000 945 Climbing Orlando TRACON
Sun 11:24:31 AM 28.8831 -80.6419 133° Southeast 392 451 12,400 1,531 Climbing Miami Center
Sun 11:25:31 AM 28.8247 -80.5617 130° Southeast 381 438 14,700 2,850 Climbing Miami Center
Sun 11:26:31 AM 28.7436 -80.4692 135° Southeast 375 432 18,100 2,700 Climbing Miami Center
Sun 11:27:31 AM 28.6475 -80.4731 182° South 324 373 20,100 1,700 Climbing Miami Center
Sun 11:28:31 AM 28.5553 -80.4892 189° South 358 412 21,500 1,450 Climbing Miami Center
Sun 11:29:31 AM 28.4506 -80.5069 188° South 379 436 23,000 750 Climbing Miami Center
Sun 11:30:31 AM 28.3394 -80.5222 187° South 391 450 23,000 200 Level Miami Center
Sun 11:31:31 AM 28.2264 -80.5397 188° South 408 470 23,400 500 Climbing Miami Center
Sun 11:32:31 AM 28.1131 -80.5619 190° South 408 470 24,000 300 Climbing Miami Center
Sun 11:33:31 AM 27.9978 -80.5792 188° South 415 478 24,000  Level Miami Center
Sun 11:34:31 AM 27.8847 -80.5967 188° South 415 478 24,000  Level Miami Center
Sun 11:35:31 AM 27.7672 -80.6164 188° South 420 483 24,000  Level Miami Center
Sun 11:36:31 AM 27.6519 -80.6358 188° South 420 483 24,000  Level Miami Center
Sun 11:37:31 AM 27.5367 -80.6533 188° South 425 489 24,000  Level Miami Center
Sun 11:38:31 AM 27.4192 -80.6728 188° South 425 489 24,000  Level Miami Center
Sun 11:39:31 AM 27.3019 -80.6922 188° South 425 489 24,000  Level Miami Center
Sun 11:40:31 AM 27.1844 -80.7117 188° South 425 489 24,000  Level Miami Center
Sun 11:41:31 AM 27.0650 -80.7311 188° South 425 489 24,000  Level Miami Center
Sun 11:42:31 AM 26.9475 -80.7506 188° South 430 495 24,000  Level Miami Center
Sun 11:43:31 AM 26.8300 -80.7697 188° South 430 495 24,000  Level Miami Center
Sun 11:44:31 AM 26.7147 -80.7822 186° South 422 486 24,000  Level Miami Center
Sun 11:45:31 AM 26.5869 -80.8036 189° South 427 491 24,000  Level Miami Center
Sun 11:46:31 AM 26.4672 -80.8250 189° South 427 491 24,000  Level Miami Center
Sun 11:47:31 AM 26.3603 -80.8400 187° South 432 497 24,000  Level Miami Center
Sun 11:48:31 AM 26.2322 -80.8611 188° South 432 497 24,000  Level Miami Center
Sun 11:49:31 AM 26.1150 -80.8803 188° South 427 491 24,000  Level Miami Center
Sun 11:50:31 AM 25.9953 -80.8994 188° South 427 491 24,000  Level Miami Center
Sun 11:51:31 AM 25.8758 -80.9186 188° South 427 491 24,000  Level Miami Center
Sun 11:52:31 AM 25.7667 -80.9356 188° South 433 498 24,000 -950 Level Miami Center
Sun 11:53:31 AM 25.6492 -80.9522 187° South 433 498 22,100 -9,000 Descending Miami Center
Sun 11:54:31 AM 25.5403 -80.9694 188° South 416 479 6,000 -8,050 Descending Miami Center
Sun 11:55:31 AM 25.4472 -81.0100 201° Southwest 384 442 6,000 2,650 Level Miami Center
Sun 11:56:31 AM 25.3644 -81.0553 206° Southwest 417 480 11,300 1,250 Climbing Miami Center
Sun 11:57:31 AM 25.2803 -81.0731 191° South 349 402 8,500 -2,500 Descending Miami Center
Sun 11:58:31 AM 25.2031 -81.0706 178° South 309 356 6,300 -2,050 Descending Miami Center
Sun 11:59:31 AM 25.1258 -81.0656 177° South 296 341 4,400 -1,450 Descending Miami Center
Sun 12:00:31 PM 25.0508 -81.0631 178° South 280 322 3,400 -750 Descending Miami Center
Sun 12:01:31 PM 24.9758 -81.0603 178° South 274 315 2,900 -250 Descending Miami Center
Sun 12:02:31 PM 24.9047 -81.0581 178° South 269 310 2,900  Level Miami Center

Login

Don't have an account? Register now (free) for customized features, flight alerts, and more!